createdAt,value
2022-07-31T00:01:02.481Z,60.70
2022-07-31T00:04:04.897Z,60.70
2022-07-31T00:07:14.434Z,60.70
2022-07-31T00:10:16.736Z,60.70
2022-07-31T00:13:18.835Z,60.70
2022-07-31T00:16:41.049Z,60.80
2022-07-31T00:19:43.127Z,60.80
2022-07-31T00:22:47.934Z,60.70
2022-07-31T00:25:50.029Z,60.80
2022-07-31T00:28:52.185Z,60.80
2022-07-31T00:31:54.281Z,60.80
2022-07-31T00:34:56.464Z,60.80
2022-07-31T00:41:25.772Z,60.80
2022-07-31T00:44:28.960Z,60.80
2022-07-31T00:47:34.314Z,60.90
2022-07-31T00:50:38.125Z,60.80
2022-07-31T00:53:40.767Z,60.80
2022-07-31T00:56:43.945Z,60.80
2022-07-31T00:59:46.076Z,60.80
2022-07-31T01:02:48.822Z,60.80
2022-07-31T01:05:51.062Z,60.80
2022-07-31T01:08:53.241Z,60.80
2022-07-31T01:12:16.429Z,60.80
2022-07-31T01:15:20.415Z,60.80
2022-07-31T01:18:23.992Z,60.80
2022-07-31T01:21:35.437Z,60.80
2022-07-31T01:25:19.720Z,60.80
2022-07-31T01:28:56.215Z,60.90
2022-07-31T01:32:10.601Z,60.80
2022-07-31T01:35:22.044Z,60.80
2022-07-31T01:38:28.306Z,60.80
2022-07-31T01:41:42.086Z,60.80
2022-07-31T01:44:46.334Z,60.80
2022-07-31T01:47:49.399Z,60.80
2022-07-31T01:50:56.865Z,60.80
2022-07-31T01:54:01.629Z,60.80
2022-07-31T01:57:06.168Z,60.90
2022-07-31T02:00:33.826Z,60.90
2022-07-31T02:03:43.527Z,60.90
2022-07-31T02:06:51.556Z,60.90
2022-07-31T02:09:58.561Z,61.00
2022-07-31T02:13:07.240Z,61.10
2022-07-31T02:16:12.041Z,60.80
2022-07-31T02:19:15.091Z,60.90
2022-07-31T02:22:17.558Z,61.00
2022-07-31T02:25:19.798Z,61.00
2022-07-31T02:28:24.432Z,60.90
2022-07-31T02:31:31.124Z,61.00
2022-07-31T02:34:35.584Z,61.00
2022-07-31T02:37:40.045Z,61.10
2022-07-31T02:40:42.912Z,61.10
2022-07-31T02:43:47.045Z,61.10
2022-07-31T02:46:55.562Z,61.10
2022-07-31T02:49:58.550Z,61.20
2022-07-31T02:53:00.838Z,61.30
2022-07-31T02:56:04.704Z,61.20
2022-07-31T02:59:11.483Z,61.20
2022-07-31T03:02:37.801Z,61.20
2022-07-31T03:05:40.961Z,61.20
2022-07-31T03:08:43.506Z,61.20
2022-07-31T03:11:48.325Z,61.30
2022-07-31T03:14:52.833Z,61.30
2022-07-31T03:17:55.408Z,61.30
2022-07-31T03:21:10.845Z,61.30
2022-07-31T03:24:13.266Z,61.50
2022-07-31T03:27:15.428Z,61.40
2022-07-31T03:30:19.273Z,61.40
2022-07-31T03:33:22.321Z,61.40
2022-07-31T03:36:24.744Z,61.40
2022-07-31T03:39:26.852Z,61.40
2022-07-31T03:42:33.889Z,61.40
2022-07-31T03:45:39.083Z,61.40
2022-07-31T03:48:41.762Z,61.50
2022-07-31T03:51:46.054Z,61.40
2022-07-31T03:54:48.787Z,61.40
2022-07-31T03:57:54.986Z,61.40
2022-07-31T04:00:59.761Z,61.40
2022-07-31T04:04:03.249Z,61.40
2022-07-31T04:07:24.965Z,61.30
2022-07-31T04:10:27.737Z,61.30
2022-07-31T04:13:29.908Z,61.20
2022-07-31T04:16:32.091Z,61.20
2022-07-31T04:19:35.224Z,61.10
2022-07-31T04:22:38.761Z,61.10
2022-07-31T04:25:46.856Z,61.00
2022-07-31T04:29:00.205Z,61.00
2022-07-31T04:32:04.338Z,61.00
2022-07-31T04:35:10.750Z,61.00
2022-07-31T04:38:12.921Z,61.00
2022-07-31T04:41:15.178Z,61.00
2022-07-31T04:44:17.404Z,61.00
2022-07-31T04:47:30.919Z,61.10
2022-07-31T04:50:33.925Z,61.00
2022-07-31T04:53:38.345Z,61.00
2022-07-31T04:56:43.633Z,61.00
2022-07-31T04:59:59.933Z,61.00
2022-07-31T05:03:05.966Z,60.90
2022-07-31T05:06:12.456Z,60.90
2022-07-31T05:09:25.360Z,60.80
2022-07-31T05:12:32.445Z,60.80
2022-07-31T05:15:34.643Z,60.80
2022-07-31T05:18:37.644Z,60.70
2022-07-31T05:22:02.466Z,60.80
2022-07-31T05:25:08.386Z,60.60
2022-07-31T05:28:10.704Z,60.60
2022-07-31T05:31:14.800Z,60.50
2022-07-31T05:34:17.058Z,60.50
2022-07-31T05:37:19.238Z,60.40
2022-07-31T05:40:21.580Z,60.30
2022-07-31T05:43:42.157Z,60.30
2022-07-31T05:49:56.756Z,60.20
2022-07-31T05:52:59.148Z,60.20
2022-07-31T05:56:21.754Z,60.10
2022-07-31T05:59:26.564Z,59.90
2022-07-31T06:02:28.665Z,60.00
2022-07-31T06:06:04.270Z,60.00
2022-07-31T06:09:06.654Z,60.10
2022-07-31T06:12:15.042Z,60.10
2022-07-31T06:15:18.741Z,60.00
2022-07-31T06:18:20.943Z,59.90
2022-07-31T06:21:25.618Z,59.90
2022-07-31T06:24:32.318Z,59.90
2022-07-31T06:27:37.104Z,60.00
2022-07-31T06:30:41.417Z,60.00
2022-07-31T06:33:43.670Z,60.10
2022-07-31T06:36:51.663Z,60.10
2022-07-31T06:39:56.985Z,59.90
2022-07-31T06:43:22.120Z,59.90
2022-07-31T06:46:49.124Z,59.80
2022-07-31T06:50:10.604Z,59.90
2022-07-31T06:53:15.097Z,59.90
2022-07-31T06:56:17.780Z,59.90
2022-07-31T06:59:39.568Z,59.90
2022-07-31T07:02:45.230Z,60.00
2022-07-31T07:05:47.517Z,60.00
2022-07-31T07:08:50.792Z,59.90
2022-07-31T07:11:55.344Z,59.90
2022-07-31T07:14:58.266Z,59.90
2022-07-31T07:18:00.454Z,59.80
2022-07-31T07:21:11.321Z,59.90
2022-07-31T07:24:14.020Z,59.90
2022-07-31T07:27:49.170Z,59.90
2022-07-31T07:30:51.401Z,59.80
2022-07-31T07:34:11.441Z,59.80
2022-07-31T07:37:13.585Z,59.80
2022-07-31T07:40:17.186Z,59.70
2022-07-31T07:43:19.529Z,59.70
2022-07-31T07:46:23.696Z,59.70
2022-07-31T07:49:29.426Z,59.60
2022-07-31T07:52:59.702Z,59.50
2022-07-31T07:56:34.021Z,59.60
2022-07-31T08:00:08.318Z,59.50
2022-07-31T08:03:48.460Z,59.50
2022-07-31T08:06:42.856Z,59.50
2022-07-31T08:09:45.885Z,59.50
2022-07-31T08:13:26.574Z,59.30
2022-07-31T08:16:47.533Z,59.30
2022-07-31T08:19:51.413Z,59.20
2022-07-31T08:22:54.181Z,59.20
2022-07-31T08:25:56.485Z,59.20
2022-07-31T08:29:00.053Z,59.10
2022-07-31T08:32:07.793Z,59.00
2022-07-31T08:35:32.922Z,58.90
2022-07-31T08:38:36.828Z,58.80
2022-07-31T08:41:59.139Z,58.80
2022-07-31T08:45:01.950Z,58.90
2022-07-31T08:48:08.803Z,58.80
2022-07-31T08:51:20.276Z,58.70
2022-07-31T08:54:54.860Z,58.60
2022-07-31T08:57:59.194Z,58.60
2022-07-31T09:01:01.992Z,58.60
2022-07-31T09:04:04.977Z,58.50
2022-07-31T09:07:11.073Z,58.50
2022-07-31T09:10:23.909Z,58.50
2022-07-31T09:13:26.694Z,58.50
2022-07-31T09:16:30.916Z,58.50
2022-07-31T09:19:53.852Z,58.40
2022-07-31T09:23:08.550Z,58.50
2022-07-31T09:26:15.543Z,58.40
2022-07-31T09:29:18.318Z,58.20
2022-07-31T09:32:21.527Z,58.30
2022-07-31T09:35:53.204Z,58.20
2022-07-31T09:38:59.771Z,58.30
2022-07-31T09:42:16.030Z,58.30
2022-07-31T09:45:25.792Z,58.30
2022-07-31T09:48:29.738Z,58.20
2022-07-31T09:51:41.094Z,58.10
2022-07-31T09:54:44.618Z,58.10
2022-07-31T09:58:03.814Z,58.00
2022-07-31T10:01:13.324Z,58.00
2022-07-31T10:04:20.925Z,57.90
2022-07-31T10:07:32.487Z,57.90
2022-07-31T10:10:48.906Z,57.90
2022-07-31T10:14:02.314Z,57.90
2022-07-31T10:17:06.090Z,57.90
2022-07-31T10:20:21.802Z,57.90
2022-07-31T10:23:44.116Z,57.80
2022-07-31T10:27:00.169Z,57.90
2022-07-31T10:30:05.573Z,57.90
2022-07-31T10:33:41.992Z,57.80
2022-07-31T10:37:14.364Z,58.10
2022-07-31T10:40:54.187Z,57.70
2022-07-31T10:44:00.954Z,57.80
2022-07-31T10:47:17.577Z,57.70
2022-07-31T10:51:07.365Z,57.80
2022-07-31T10:54:45.137Z,57.70
2022-07-31T10:58:22.029Z,57.70
2022-07-31T11:01:27.051Z,57.60
2022-07-31T11:08:47.381Z,57.40
2022-07-31T11:12:20.653Z,57.50
2022-07-31T11:15:43.469Z,57.40
2022-07-31T11:19:10.771Z,57.30
2022-07-31T11:22:31.953Z,57.30
2022-07-31T11:25:36.974Z,57.20
2022-07-31T11:28:39.073Z,57.10
2022-07-31T11:31:41.158Z,57.10
2022-07-31T11:34:53.640Z,57.00
2022-07-31T11:37:58.279Z,57.20
2022-07-31T11:41:02.089Z,57.10
2022-07-31T11:44:05.091Z,57.20
2022-07-31T11:47:55.960Z,57.80
2022-07-31T11:50:38.926Z,57.20
2022-07-31T11:53:42.255Z,57.20
2022-07-31T11:56:44.422Z,57.10
2022-07-31T11:59:49.369Z,57.00
2022-07-31T12:02:52.049Z,57.00
2022-07-31T12:06:19.034Z,56.90
2022-07-31T12:10:02.310Z,56.80
2022-07-31T12:12:44.229Z,56.80
2022-07-31T12:16:06.169Z,56.70
2022-07-31T12:19:09.240Z,56.70
2022-07-31T12:22:20.537Z,56.50
2022-07-31T12:25:22.670Z,56.60
2022-07-31T12:28:24.752Z,56.30
2022-07-31T12:31:29.982Z,56.30
2022-07-31T12:34:38.402Z,56.30
2022-07-31T12:37:49.600Z,56.40
2022-07-31T12:41:03.211Z,56.30
2022-07-31T12:44:14.677Z,56.30
2022-07-31T12:47:26.303Z,56.10
2022-07-31T12:50:29.990Z,56.20
2022-07-31T12:53:33.117Z,56.20
2022-07-31T12:56:39.825Z,56.20
2022-07-31T12:59:42.543Z,56.10
2022-07-31T13:02:44.889Z,56.20
2022-07-31T13:05:51.698Z,56.10
2022-07-31T13:08:54.809Z,56.00
2022-07-31T13:11:58.032Z,55.90
2022-07-31T13:15:02.042Z,56.00
2022-07-31T13:18:05.219Z,56.00
2022-07-31T13:21:07.404Z,56.10
2022-07-31T13:24:09.709Z,56.00
2022-07-31T13:27:11.830Z,55.90
2022-07-31T13:30:14.464Z,55.80
2022-07-31T13:33:16.616Z,55.90
2022-07-31T13:36:18.868Z,55.80
2022-07-31T13:39:21.109Z,55.70
2022-07-31T13:42:27.636Z,55.60
2022-07-31T13:45:32.561Z,55.50
2022-07-31T13:48:35.296Z,55.70
2022-07-31T13:51:38.219Z,55.60
2022-07-31T13:54:40.344Z,55.60
2022-07-31T13:57:42.428Z,55.50
2022-07-31T14:00:44.553Z,55.50
2022-07-31T14:03:46.809Z,55.50
2022-07-31T14:06:50.652Z,55.40
2022-07-31T14:09:55.448Z,55.40
2022-07-31T14:12:57.964Z,55.30
2022-07-31T14:16:00.150Z,55.30
2022-07-31T14:19:02.964Z,55.10
2022-07-31T14:22:05.084Z,55.20
2022-07-31T14:25:13.505Z,55.00
2022-07-31T14:28:15.776Z,55.00
2022-07-31T14:31:18.096Z,54.80
2022-07-31T14:34:20.213Z,55.00
2022-07-31T14:37:22.424Z,54.70
2022-07-31T14:40:24.939Z,54.80
2022-07-31T14:43:27.132Z,54.70
2022-07-31T14:46:29.258Z,54.80
2022-07-31T14:50:08.949Z,54.80
2022-07-31T14:52:56.285Z,55.00
2022-07-31T14:56:03.842Z,54.80
2022-07-31T14:59:06.288Z,54.60
2022-07-31T15:02:09.238Z,54.60
2022-07-31T15:06:48.641Z,54.70
2022-07-31T15:08:36.363Z,54.50
2022-07-31T15:12:00.737Z,54.50
2022-07-31T15:15:00.982Z,54.60
2022-07-31T15:18:03.189Z,54.50
2022-07-31T15:21:05.546Z,54.50
2022-07-31T15:24:08.060Z,54.30
2022-07-31T15:27:34.380Z,54.40
2022-07-31T15:30:36.563Z,54.50
2022-07-31T15:33:39.326Z,54.30
2022-07-31T15:36:43.184Z,54.30
2022-07-31T15:39:45.296Z,54.20
2022-07-31T15:43:05.390Z,54.20
2022-07-31T15:46:09.591Z,54.00
2022-07-31T15:49:22.904Z,54.20
2022-07-31T15:52:25.222Z,54.30
2022-07-31T15:55:28.754Z,54.00
2022-07-31T15:58:30.961Z,54.20
2022-07-31T16:01:33.381Z,54.10
2022-07-31T16:04:46.443Z,54.00
2022-07-31T16:08:31.993Z,54.10
2022-07-31T16:11:19.142Z,54.10
2022-07-31T16:14:21.589Z,54.00
2022-07-31T16:17:37.932Z,54.00
2022-07-31T16:20:40.300Z,53.90
2022-07-31T16:23:42.604Z,54.00
2022-07-31T16:26:44.828Z,54.00
2022-07-31T16:29:57.927Z,54.10
2022-07-31T16:33:02.174Z,54.00
2022-07-31T16:36:05.679Z,53.90
2022-07-31T16:39:20.018Z,54.00
2022-07-31T16:42:22.631Z,54.00
2022-07-31T16:45:25.785Z,53.90
2022-07-31T16:48:28.040Z,54.00
2022-07-31T16:51:30.144Z,54.10
2022-07-31T16:54:33.449Z,54.00
2022-07-31T16:57:35.626Z,54.00
2022-07-31T17:00:39.729Z,54.00
2022-07-31T17:04:00.742Z,54.10
2022-07-31T17:07:04.698Z,54.10
2022-07-31T17:10:07.747Z,54.00
2022-07-31T17:13:09.952Z,54.10
2022-07-31T17:16:12.046Z,54.10
2022-07-31T17:19:14.425Z,54.00
2022-07-31T17:22:17.664Z,54.20
2022-07-31T17:25:22.529Z,54.20
2022-07-31T17:28:24.629Z,54.20
2022-07-31T17:31:27.822Z,54.20
2022-07-31T17:34:30.127Z,54.30
2022-07-31T17:37:32.315Z,54.40
2022-07-31T17:40:43.454Z,54.50
2022-07-31T17:43:50.319Z,54.40
2022-07-31T17:46:53.047Z,54.60
2022-07-31T17:49:55.343Z,54.60
2022-07-31T17:52:57.483Z,55.30
2022-07-31T17:55:59.596Z,54.60
2022-07-31T17:59:05.913Z,54.80
2022-07-31T18:02:08.332Z,54.70
2022-07-31T18:05:11.007Z,54.80
2022-07-31T18:08:13.106Z,54.80
2022-07-31T18:11:15.341Z,54.80
2022-07-31T18:14:18.321Z,54.90
2022-07-31T18:17:20.900Z,55.10
2022-07-31T18:20:24.162Z,55.30
2022-07-31T18:23:32.059Z,55.30
2022-07-31T18:26:35.482Z,55.40
2022-07-31T18:29:37.825Z,55.50
2022-07-31T18:32:39.955Z,55.70
2022-07-31T18:35:42.736Z,55.80
2022-07-31T18:38:45.337Z,55.90
2022-07-31T18:41:49.104Z,56.00
2022-07-31T18:44:51.512Z,56.00
2022-07-31T18:47:53.845Z,56.00
2022-07-31T18:50:58.406Z,56.10
2022-07-31T18:54:04.871Z,56.20
2022-07-31T18:57:08.114Z,56.30
2022-07-31T19:00:10.945Z,56.40
2022-07-31T19:03:13.112Z,56.40
2022-07-31T19:06:15.708Z,56.60
2022-07-31T19:09:22.973Z,56.80
2022-07-31T19:12:35.268Z,56.90
2022-07-31T19:15:37.988Z,57.00
2022-07-31T19:18:40.466Z,57.00
2022-07-31T19:21:43.018Z,57.10
2022-07-31T19:24:45.203Z,57.00
2022-07-31T19:27:50.248Z,57.10
2022-07-31T19:30:53.303Z,57.10
2022-07-31T19:33:55.472Z,57.10
2022-07-31T19:36:57.744Z,57.20
2022-07-31T19:40:00.037Z,57.20
2022-07-31T19:43:02.411Z,57.40
2022-07-31T19:46:11.393Z,57.30
2022-07-31T19:49:25.075Z,57.30
2022-07-31T19:52:27.271Z,57.40
2022-07-31T19:55:29.381Z,57.40
2022-07-31T19:58:41.814Z,57.50
2022-07-31T20:01:43.998Z,57.50
2022-07-31T20:04:46.192Z,57.50
2022-07-31T20:07:48.295Z,57.40
2022-07-31T20:10:51.689Z,57.40
2022-07-31T20:14:03.153Z,57.50
2022-07-31T20:17:13.829Z,57.50
2022-07-31T20:20:16.419Z,57.50
2022-07-31T20:23:18.603Z,57.50
2022-07-31T20:26:24.702Z,57.70
2022-07-31T20:29:27.745Z,57.70
2022-07-31T20:32:31.153Z,57.70
2022-07-31T20:35:49.379Z,57.70
2022-07-31T20:38:52.152Z,57.70
2022-07-31T20:41:54.358Z,58.30
2022-07-31T20:44:56.514Z,57.80
2022-07-31T20:47:59.461Z,57.80
2022-07-31T20:51:03.652Z,58.20
2022-07-31T20:54:06.028Z,57.90
2022-07-31T20:57:08.300Z,58.00
2022-07-31T21:00:11.512Z,58.00
2022-07-31T21:03:14.209Z,58.00
2022-07-31T21:06:16.718Z,58.10
2022-07-31T21:09:19.055Z,58.10
2022-07-31T21:12:21.265Z,58.20
2022-07-31T21:15:42.010Z,58.20
2022-07-31T21:18:47.278Z,58.20
2022-07-31T21:21:51.539Z,58.40
2022-07-31T21:24:54.089Z,58.30
2022-07-31T21:27:58.117Z,58.30
2022-07-31T21:31:00.540Z,58.40
2022-07-31T21:34:03.271Z,58.40
2022-07-31T21:37:07.174Z,58.40
2022-07-31T21:40:10.338Z,58.50
2022-07-31T21:43:18.884Z,58.50
2022-07-31T21:46:25.543Z,58.50
2022-07-31T21:49:34.728Z,58.50
2022-07-31T21:52:36.987Z,58.50
2022-07-31T21:55:40.079Z,58.50
2022-07-31T21:58:45.276Z,58.40
2022-07-31T22:01:58.097Z,59.20
2022-07-31T22:05:28.292Z,58.50
2022-07-31T22:08:31.540Z,58.50
2022-07-31T22:11:35.999Z,58.50
2022-07-31T22:14:38.099Z,58.50
2022-07-31T22:17:40.338Z,58.50
2022-07-31T22:20:42.657Z,58.50
2022-07-31T22:23:44.901Z,58.50
2022-07-31T22:27:08.760Z,58.60
2022-07-31T22:30:12.064Z,58.60
2022-07-31T22:33:14.490Z,58.60
2022-07-31T22:36:20.385Z,58.60
2022-07-31T22:39:22.653Z,58.70
2022-07-31T22:42:25.363Z,58.70
2022-07-31T22:45:27.584Z,58.70
2022-07-31T22:48:31.056Z,58.70
2022-07-31T22:51:38.037Z,58.80
2022-07-31T22:54:41.869Z,58.80
2022-07-31T22:57:45.141Z,58.90
2022-07-31T23:01:07.535Z,58.90
2022-07-31T23:04:09.646Z,59.00
2022-07-31T23:07:11.761Z,59.00
2022-07-31T23:10:14.298Z,59.10
2022-07-31T23:13:16.474Z,59.20
2022-07-31T23:16:18.791Z,59.20
2022-07-31T23:19:20.969Z,59.30
2022-07-31T23:22:33.278Z,59.30
2022-07-31T23:25:36.174Z,59.30
2022-07-31T23:28:38.365Z,59.30
2022-07-31T23:31:40.509Z,59.30
2022-07-31T23:34:42.697Z,59.30
2022-07-31T23:37:45.910Z,59.30
2022-07-31T23:40:48.088Z,59.30
2022-07-31T23:43:54.284Z,59.20
2022-07-31T23:46:57.714Z,59.20
2022-07-31T23:49:59.846Z,59.20
2022-07-31T23:53:01.989Z,59.20
2022-07-31T23:56:04.386Z,59.30
2022-07-31T23:59:20.557Z,59.30
